Time;durP1;ratioP1;P1;durP2;ratioP2;P2;SDS_P1;SDS_P2;PMS_P1;PMS_P2;Temp;Humidity;BMP_temperature;BMP_pressure;BME280_temperature;BME280_humidity;BME280_pressure;Samples;Min_cycle;Max_cycle;Signal;HPM_P1;HPM_P2
2023/01/08 00:02:19;;;;;;;48.80;29.40;;;;;;;5.44;90.57;100705.42;109349;1291;37039;-77
2023/01/08 00:04:51;;;;;;;47.50;29.40;;;;;;;5.41;90.74;100697.14;109340;1289;38875;-75
2023/01/08 00:07:22;;;;;;;48.50;30.00;;;;;;;5.38;90.74;100699.25;109352;1292;37283;-75
2023/01/08 00:09:53;;;;;;;50.40;29.90;;;;;;;5.34;90.71;100699.13;109367;1276;37601;-77
2023/01/08 00:12:25;;;;;;;46.30;28.90;;;;;;;5.34;90.64;100698.79;109238;1291;172341;-77
2023/01/08 00:14:56;;;;;;;50.80;31.90;;;;;;;5.36;91.08;100698.06;109262;1291;37072;-77
2023/01/08 00:17:27;;;;;;;52.10;30.10;;;;;;;5.36;90.91;100696.86;109461;1273;37545;-77
2023/01/08 00:19:58;;;;;;;50.80;31.40;;;;;;;5.35;90.76;100705.52;109366;1276;36373;-77
2023/01/08 00:22:30;;;;;;;50.40;29.90;;;;;;;5.35;90.86;100703.61;109366;1283;37076;-77
2023/01/08 00:25:01;;;;;;;49.80;30.40;;;;;;;5.33;90.79;100706.06;109381;1280;36801;-74
2023/01/08 00:27:32;;;;;;;48.90;30.70;;;;;;;5.33;90.80;100706.22;109359;1287;37299;-73
2023/01/08 00:30:05;;;;;;;48.50;30.30;;;;;;;5.31;90.75;100703.48;109357;1291;36105;-75
2023/01/08 00:32:36;;;;;;;52.30;30.70;;;;;;;5.29;90.78;100696.93;109384;1276;37461;-74
2023/01/08 00:35:09;;;;;;;48.80;28.90;;;;;;;5.30;90.74;100693.81;109357;1291;37009;-74
2023/01/08 00:37:40;;;;;;;50.20;30.50;;;;;;;5.30;90.78;100695.89;109275;1273;37171;-74
2023/01/08 00:40:12;;;;;;;45.50;28.00;;;;;;;5.30;90.61;100687.92;109258;1291;37052;-77
2023/01/08 00:42:43;;;;;;;49.30;29.30;;;;;;;5.30;90.48;100691.74;109369;1291;38513;-77
2023/01/08 00:45:15;;;;;;;47.70;28.40;;;;;;;5.28;90.50;100690.90;109251;1291;37150;-74
2023/01/08 00:47:47;;;;;;;45.90;28.20;;;;;;;5.25;90.62;100693.00;109386;1291;37391;-74
2023/01/08 00:50:18;;;;;;;47.70;27.90;;;;;;;5.22;90.43;100687.50;109388;1276;37818;-75
2023/01/08 00:52:50;;;;;;;46.60;27.00;;;;;;;5.18;90.40;100687.89;109359;1268;37570;-75
2023/01/08 00:55:21;;;;;;;42.60;26.50;;;;;;;5.16;90.11;100687.39;109251;1277;37301;-77
2023/01/08 00:57:52;;;;;;;43.60;27.00;;;;;;;5.10;89.96;100685.21;109374;1291;37029;-77
2023/01/08 01:00:23;;;;;;;44.30;26.60;;;;;;;5.04;89.85;100681.81;109396;1276;36707;-74
2023/01/08 01:02:55;;;;;;;44.50;25.10;;;;;;;4.97;89.80;100684.65;109371;1291;36770;-74
2023/01/08 01:05:26;;;;;;;42.00;25.80;;;;;;;4.93;89.99;100686.94;109268;1279;37270;-74
2023/01/08 01:07:57;;;;;;;37.60;23.40;;;;;;;4.90;90.04;100682.13;109365;1291;37541;-74
2023/01/08 01:10:28;;;;;;;40.80;24.40;;;;;;;4.88;89.92;100675.23;109392;1277;36973;-77
2023/01/08 01:13:00;;;;;;;38.70;23.60;;;;;;;4.85;89.84;100673.54;109372;1291;37137;-77
2023/01/08 01:15:31;;;;;;;38.60;24.50;;;;;;;4.82;89.63;100675.29;109220;1278;37334;-77
2023/01/08 01:18:02;;;;;;;37.00;24.10;;;;;;;4.77;89.82;100669.11;109355;1291;37200;-77
2023/01/08 01:20:32;;;;;;;36.30;22.80;;;;;;;4.73;89.48;100666.22;109381;1268;37269;-78
2023/01/08 01:23:06;;;;;;;38.10;23.00;;;;;;;4.70;89.67;100665.72;109245;1277;174273;-77
2023/01/08 01:25:39;;;;;;;35.60;22.50;;;;;;;4.70;89.79;100663.83;109423;1274;36463;-75
2023/01/08 01:28:10;;;;;;;38.60;24.50;;;;;;;4.68;89.85;100661.77;109377;1291;37321;-75
2023/01/08 01:30:42;;;;;;;37.20;24.40;;;;;;;4.67;89.67;100662.83;109373;1287;37405;-74
2023/01/08 01:33:13;;;;;;;38.40;23.80;;;;;;;4.62;89.44;100667.70;109371;1291;36998;-74
2023/01/08 01:35:45;;;;;;;36.10;22.40;;;;;;;4.56;89.54;100668.43;109375;1291;38584;-74
2023/01/08 01:38:16;;;;;;;37.10;23.40;;;;;;;4.51;89.56;100663.81;109275;1291;172412;-74
2023/01/08 01:40:48;;;;;;;36.50;22.00;;;;;;;4.50;89.56;100660.37;109389;1277;38938;-74
2023/01/08 01:43:40;;;;;;;35.80;23.10;;;;;;;4.47;89.59;100652.61;109375;1276;37403;-74
2023/01/08 01:46:21;;;;;;;33.50;22.20;;;;;;;4.46;89.64;100656.09;109390;1291;37263;-74
2023/01/08 01:48:55;;;;;;;35.10;23.10;;;;;;;4.44;89.22;100659.73;109378;1277;36980;-74
2023/01/08 01:51:31;;;;;;;37.20;23.10;;;;;;;4.40;89.67;100653.20;109415;1291;37077;-74
2023/01/08 01:54:03;;;;;;;33.10;22.30;;;;;;;4.40;89.90;100646.63;109284;1291;37101;-74
2023/01/08 01:56:38;;;;;;;34.50;22.40;;;;;;;4.38;89.46;100644.40;109364;1291;37237;-77
2023/01/08 01:59:09;;;;;;;32.60;21.80;;;;;;;4.35;89.52;100641.32;109248;1277;37796;-77
2023/01/08 02:01:41;;;;;;;33.90;22.90;;;;;;;4.36;89.35;100641.48;109390;1268;37097;-77
2023/01/08 02:04:12;;;;;;;38.80;24.00;;;;;;;4.41;89.75;100636.44;109260;1277;37380;-77
2023/01/08 02:06:46;;;;;;;35.30;23.30;;;;;;;4.44;89.61;100631.59;109345;1291;37076;-77
2023/01/08 02:09:25;;;;;;;34.20;22.50;;;;;;;4.43;89.44;100632.96;109386;1276;36202;-78
2023/01/08 02:15:00;;;;;;;30.30;20.10;;;;;;;4.40;89.27;100630.06;109352;1277;38474;-74
2023/01/08 02:17:37;;;;;;;32.20;21.40;;;;;;;4.41;89.15;100623.99;109363;1291;36702;-73
2023/01/08 02:20:12;;;;;;;32.70;20.10;;;;;;;4.40;89.36;100617.27;109388;1291;37139;-75
2023/01/08 02:22:51;;;;;;;31.90;21.00;;;;;;;4.39;89.30;100621.26;109368;1270;37309;-75
2023/01/08 02:25:30;;;;;;;34.50;20.30;;;;;;;4.39;89.44;100618.31;109376;1291;37195;-77
2023/01/08 02:28:02;;;;;;;30.00;20.60;;;;;;;4.36;89.02;100609.36;109351;1277;36989;-77
2023/01/08 02:30:33;;;;;;;28.60;20.70;;;;;;;4.37;89.49;100613.83;109375;1268;37675;-75
2023/01/08 02:33:04;;;;;;;28.70;20.70;;;;;;;4.39;89.75;100614.69;109387;1291;38683;-75
2023/01/08 02:35:41;;;;;;;31.30;21.70;;;;;;;4.38;89.64;100608.83;109397;1291;37064;-74
2023/01/08 02:38:14;;;;;;;31.00;21.60;;;;;;;4.40;89.78;100611.56;109411;1268;38303;-74
2023/01/08 02:40:53;;;;;;;31.00;21.30;;;;;;;4.40;89.69;100608.97;109395;1291;37171;-75
2023/01/08 02:43:27;;;;;;;31.20;20.80;;;;;;;4.38;89.61;100605.38;109364;1291;36981;-75
2023/01/08 02:45:59;;;;;;;28.60;20.60;;;;;;;4.35;89.71;100604.02;109381;1291;38541;-77
2023/01/08 02:48:35;;;;;;;27.20;19.70;;;;;;;4.34;89.87;100597.80;109529;1272;37446;-77
2023/01/08 02:51:08;;;;;;;29.00;19.80;;;;;;;4.34;90.22;100590.21;109387;1277;37024;-76
2023/01/08 02:53:42;;;;;;;31.90;21.30;;;;;;;4.33;90.06;100594.53;109358;1291;36510;-77
2023/01/08 02:56:15;;;;;;;28.30;19.10;;;;;;;4.29;90.14;100594.74;109401;1279;37157;-77
2023/01/08 02:58:47;;;;;;;25.30;17.70;;;;;;;4.27;90.17;100596.30;109377;1277;36186;-77
2023/01/08 03:01:18;;;;;;;26.60;17.70;;;;;;;4.26;89.88;100592.01;109388;1291;37158;-74
2023/01/08 03:03:51;;;;;;;23.70;17.70;;;;;;;4.26;90.04;100590.27;109410;1277;37331;-74
2023/01/08 03:06:23;;;;;;;24.50;18.30;;;;;;;4.26;90.09;100589.41;109392;1285;36993;-74
2023/01/08 03:08:54;;;;;;;26.10;17.80;;;;;;;4.25;90.07;100589.95;109383;1291;36980;-74
2023/01/08 03:11:26;;;;;;;23.50;17.90;;;;;;;4.25;90.07;100586.14;109371;1277;37355;-77
2023/01/08 03:14:00;;;;;;;24.40;16.70;;;;;;;4.22;89.87;100587.21;109248;1277;36957;-77
2023/01/08 03:16:35;;;;;;;22.10;15.50;;;;;;;4.17;89.75;100579.48;109385;1291;37354;-75
2023/01/08 03:19:09;;;;;;;23.20;15.40;;;;;;;4.12;89.59;100576.06;109390;1268;37219;-75
2023/01/08 03:21:40;;;;;;;20.10;15.20;;;;;;;4.09;89.64;100572.13;109383;1291;37299;-77
2023/01/08 03:24:11;;;;;;;22.80;16.30;;;;;;;4.05;89.61;100570.95;109372;1269;37082;-77
2023/01/08 03:26:42;;;;;;;21.80;14.20;;;;;;;3.99;89.28;100568.75;109374;1291;36841;-76
2023/01/08 03:29:15;;;;;;;17.40;13.10;;;;;;;3.91;89.31;100570.54;109376;1291;37367;-76
2023/01/08 03:31:47;;;;;;;19.00;12.70;;;;;;;3.86;89.39;100571.61;109381;1291;37180;-77
2023/01/08 03:34:19;;;;;;;16.20;12.50;;;;;;;3.80;89.32;100566.65;109373;1291;36975;-77
2023/01/08 03:36:51;;;;;;;19.80;13.80;;;;;;;3.72;89.45;100565.50;109398;1289;36127;-75
2023/01/08 03:39:26;;;;;;;15.70;12.60;;;;;;;3.66;89.55;100564.15;109362;1291;37171;-75
2023/01/08 03:41:59;;;;;;;18.70;12.90;;;;;;;3.61;89.80;100561.27;109373;1291;36356;-74
2023/01/08 03:44:30;;;;;;;17.00;12.00;;;;;;;3.59;89.81;100560.40;109393;1291;37633;-76
2023/01/08 03:47:00;;;;;;;16.40;11.40;;;;;;;3.61;89.93;100560.55;109254;1277;37070;-77
2023/01/08 03:49:31;;;;;;;21.00;13.60;;;;;;;3.61;89.79;100567.12;109371;1291;37094;-77
2023/01/08 03:52:03;;;;;;;17.90;13.00;;;;;;;3.60;89.83;100569.02;109356;1286;37015;-77
2023/01/08 03:54:35;;;;;;;20.20;13.00;;;;;;;3.61;90.08;100563.84;109255;1279;37083;-76
2023/01/08 03:57:06;;;;;;;15.60;12.50;;;;;;;3.63;90.17;100563.31;109360;1291;36974;-77
2023/01/08 03:59:37;;;;;;;20.70;13.20;;;;;;;3.63;89.78;100563.84;109386;1276;37259;-74
2023/01/08 04:02:08;;;;;;;16.60;12.40;;;;;;;3.59;89.78;100563.17;109373;1277;38017;-74
2023/01/08 04:04:39;;;;;;;18.50;12.70;;;;;;;3.60;89.83;100564.73;109397;1291;37327;-74
2023/01/08 04:07:11;;;;;;;19.90;14.10;;;;;;;3.59;89.91;100564.71;109406;1291;37221;-74
2023/01/08 04:09:42;;;;;;;17.20;13.20;;;;;;;3.58;89.88;100563.70;109289;1278;38479;-76
2023/01/08 04:12:13;;;;;;;17.10;11.90;;;;;;;3.56;89.78;100562.84;108944;1270;444091;-77
2023/01/08 04:14:44;;;;;;;17.50;12.10;;;;;;;3.58;89.96;100571.45;109339;1277;37116;-76
2023/01/08 04:17:15;;;;;;;16.80;12.40;;;;;;;3.60;89.74;100572.13;109195;1292;37429;-77
2023/01/08 04:19:46;;;;;;;16.50;12.10;;;;;;;3.63;89.55;100580.56;109327;1277;36142;-76
2023/01/08 04:22:17;;;;;;;17.50;11.70;;;;;;;3.60;89.48;100577.31;109333;1283;37150;-77
2023/01/08 04:24:49;;;;;;;17.70;12.10;;;;;;;3.59;89.57;100571.63;109347;1292;37202;-74
2023/01/08 04:27:20;;;;;;;16.80;11.40;;;;;;;3.59;89.62;100564.71;109331;1292;37328;-74
2023/01/08 04:29:51;;;;;;;15.00;11.60;;;;;;;3.60;89.38;100560.41;109249;1277;172472;-75
2023/01/08 04:32:22;;;;;;;14.40;12.20;;;;;;;3.60;89.47;100553.50;109342;1292;38570;-75
2023/01/08 04:34:53;;;;;;;17.70;12.80;;;;;;;3.58;89.39;100550.75;109340;1276;37173;-76
2023/01/08 04:37:24;;;;;;;17.50;12.90;;;;;;;3.56;89.37;100549.39;108708;1277;911686;-77
2023/01/08 04:39:55;;;;;;;16.20;12.00;;;;;;;3.55;89.56;100548.02;109328;1286;37668;-75
2023/01/08 04:42:26;;;;;;;17.50;13.30;;;;;;;3.56;89.71;100547.67;109205;1280;174425;-75
2023/01/08 04:44:57;;;;;;;16.80;11.90;;;;;;;3.54;89.59;100551.48;109345;1283;38566;-74
2023/01/08 04:47:28;;;;;;;17.50;12.70;;;;;;;3.52;89.50;100550.28;109364;1292;37116;-74
2023/01/08 04:49:59;;;;;;;18.00;12.80;;;;;;;3.53;89.66;100551.30;109365;1292;38789;-75
2023/01/08 04:52:30;;;;;;;19.60;12.80;;;;;;;3.52;89.83;100544.94;109180;1292;37095;-75
2023/01/08 04:55:01;;;;;;;20.10;13.70;;;;;;;3.51;89.75;100543.56;109341;1292;36958;-77
2023/01/08 04:57:32;;;;;;;16.70;12.50;;;;;;;3.52;89.82;100542.52;109356;1277;37335;-77
2023/01/08 05:00:04;;;;;;;18.20;13.00;;;;;;;3.55;90.06;100544.23;109379;1277;37082;-75
2023/01/08 05:02:36;;;;;;;18.20;12.30;;;;;;;3.58;89.83;100544.20;109155;1281;37640;-75
2023/01/08 05:05:09;;;;;;;20.00;14.10;;;;;;;3.56;89.72;100544.38;109349;1277;36645;-76
2023/01/08 05:07:40;;;;;;;17.90;12.60;;;;;;;3.57;89.79;100538.52;109343;1292;37608;-77
2023/01/08 05:10:12;;;;;;;17.00;12.00;;;;;;;3.56;89.69;100537.48;109338;1292;37187;-75
2023/01/08 05:12:43;;;;;;;17.90;12.10;;;;;;;3.56;89.77;100541.63;109188;1289;37202;-75
2023/01/08 05:15:14;;;;;;;16.10;12.00;;;;;;;3.56;89.70;100537.66;109342;1292;37158;-77
2023/01/08 05:17:45;;;;;;;17.50;12.40;;;;;;;3.54;89.79;100533.54;109344;1277;37108;-77
2023/01/08 05:20:16;;;;;;;16.90;12.30;;;;;;;3.50;89.88;100533.39;109244;1277;174421;-75
2023/01/08 05:22:49;;;;;;;18.50;11.80;;;;;;;3.50;90.00;100530.98;109348;1292;36157;-74
2023/01/08 05:25:20;;;;;;;17.00;11.60;;;;;;;3.52;90.07;100525.27;109201;1292;36445;-76
2023/01/08 05:27:51;;;;;;;15.40;11.60;;;;;;;3.55;89.86;100524.39;109248;1280;172497;-77
2023/01/08 05:30:22;;;;;;;17.60;12.20;;;;;;;3.58;89.91;100523.83;109353;1292;37537;-75
2023/01/08 05:32:53;;;;;;;16.20;12.50;;;;;;;3.61;89.80;100525.90;109372;1280;37401;-74
2023/01/08 05:35:25;;;;;;;18.30;12.30;;;;;;;3.61;90.00;100527.10;109411;1273;36676;-74
2023/01/08 05:37:58;;;;;;;17.90;12.40;;;;;;;3.61;89.81;100529.18;109351;1292;38104;-74
2023/01/08 05:40:30;;;;;;;14.30;11.20;;;;;;;3.63;89.90;100532.44;109382;1277;37112;-76
2023/01/08 05:43:01;;;;;;;15.10;11.40;;;;;;;3.63;89.61;100532.77;109339;1292;37068;-75
2023/01/08 05:45:32;;;;;;;17.00;12.00;;;;;;;3.63;89.51;100531.23;109366;1292;36998;-76
2023/01/08 05:48:06;;;;;;;13.30;10.00;;;;;;;3.61;89.63;100526.92;109393;1277;37083;-75
2023/01/08 05:50:37;;;;;;;11.90;9.20;;;;;;;3.61;89.38;100524.52;109350;1280;38416;-76
2023/01/08 05:53:09;;;;;;;12.40;9.80;;;;;;;3.59;89.21;100523.31;109384;1292;37178;-75
2023/01/08 05:55:40;;;;;;;13.90;9.40;;;;;;;3.57;89.06;100525.41;109171;1292;37246;-77
2023/01/08 05:58:13;;;;;;;15.20;11.00;;;;;;;3.55;88.99;100528.16;109435;1280;37157;-78
2023/01/08 06:00:45;;;;;;;12.70;10.20;;;;;;;3.54;89.04;100526.45;109367;1277;36359;-75
2023/01/08 06:03:16;;;;;;;13.00;9.40;;;;;;;3.51;88.91;100520.44;109342;1292;37090;-74
2023/01/08 06:05:47;;;;;;;14.10;9.00;;;;;;;3.49;88.80;100515.11;109359;1280;36601;-74
2023/01/08 06:08:18;;;;;;;11.90;8.80;;;;;;;3.49;88.83;100513.73;109374;1277;36266;-74
2023/01/08 06:10:49;;;;;;;13.80;9.40;;;;;;;3.48;88.78;100521.85;109337;1284;36665;-74
2023/01/08 06:13:20;;;;;;;13.20;10.00;;;;;;;3.46;88.56;100518.06;109264;1277;172471;-74
2023/01/08 06:15:51;;;;;;;12.80;9.50;;;;;;;3.46;88.84;100515.66;109333;1292;36985;-77
2023/01/08 06:18:22;;;;;;;21.20;10.40;;;;;;;3.44;88.51;100517.57;109364;1292;36757;-77
2023/01/08 06:20:54;;;;;;;14.70;9.10;;;;;;;3.43;88.44;100521.70;109374;1292;37005;-77
2023/01/08 06:23:25;;;;;;;13.20;9.40;;;;;;;3.42;88.28;100522.75;109349;1292;37968;-77
2023/01/08 06:25:57;;;;;;;13.80;10.00;;;;;;;3.37;88.42;100520.02;109052;1286;174431;-75
2023/01/08 06:28:28;;;;;;;12.60;9.80;;;;;;;3.33;88.40;100510.90;109356;1277;38068;-75
2023/01/08 06:31:00;;;;;;;13.20;9.60;;;;;;;3.32;88.53;100508.48;109369;1270;36614;-74
2023/01/08 06:33:31;;;;;;;14.50;8.70;;;;;;;3.32;88.49;100506.60;109357;1292;37389;-74
2023/01/08 06:36:03;;;;;;;13.90;9.90;;;;;;;3.32;88.56;100501.42;109356;1292;37676;-77
2023/01/08 06:38:34;;;;;;;14.90;10.10;;;;;;;3.35;88.61;100504.52;109371;1292;37078;-77
2023/01/08 06:41:07;;;;;;;15.60;10.40;;;;;;;3.35;88.56;100508.30;109377;1292;37291;-78
2023/01/08 06:43:39;;;;;;;15.20;9.90;;;;;;;3.33;88.38;100502.64;109353;1280;37318;-78
2023/01/08 06:46:11;;;;;;;16.30;10.00;;;;;;;3.31;88.48;100496.77;109370;1291;37201;-77
2023/01/08 06:48:42;;;;;;;11.60;9.00;;;;;;;3.31;88.40;100493.67;109351;1280;38323;-78
2023/01/08 06:51:13;;;;;;;12.70;9.50;;;;;;;3.32;88.51;100490.20;109365;1273;37279;-76
2023/01/08 06:53:46;;;;;;;16.40;9.90;;;;;;;3.32;88.20;100489.52;109345;1292;37206;-75
2023/01/08 06:56:18;;;;;;;13.50;9.90;;;;;;;3.29;88.10;100484.38;109345;1292;37029;-77
2023/01/08 06:58:49;;;;;;;12.40;9.00;;;;;;;3.24;88.10;100485.79;109353;1292;38020;-78
2023/01/08 07:01:21;;;;;;;11.40;8.40;;;;;;;3.21;88.07;100488.91;109351;1280;37244;-74
2023/01/08 07:03:53;;;;;;;13.10;9.30;;;;;;;3.23;88.30;100488.20;109186;1281;38763;-74
2023/01/08 07:06:24;;;;;;;13.60;9.70;;;;;;;3.23;88.22;100484.75;109245;1292;174559;-77
2023/01/08 07:08:56;;;;;;;13.50;9.30;;;;;;;3.23;87.98;100487.88;109173;1292;36549;-77
2023/01/08 07:11:27;;;;;;;14.70;9.40;;;;;;;3.21;87.97;100487.19;109357;1292;36198;-77
2023/01/08 07:13:58;;;;;;;13.10;9.10;;;;;;;3.20;88.08;100482.37;109150;1292;37393;-77
2023/01/08 07:16:29;;;;;;;12.80;9.20;;;;;;;3.22;88.01;100483.73;109384;1278;39900;-75
2023/01/08 07:19:00;;;;;;;12.30;8.90;;;;;;;3.23;87.84;100482.51;109333;1280;37203;-75
2023/01/08 07:21:31;;;;;;;13.30;9.40;;;;;;;3.19;87.71;100475.83;109364;1276;36505;-76
2023/01/08 07:24:03;;;;;;;14.70;9.50;;;;;;;3.15;87.60;100470.67;109347;1277;36519;-76
2023/01/08 07:26:34;;;;;;;14.50;9.60;;;;;;;3.16;87.98;100465.50;109361;1292;37018;-77
2023/01/08 07:29:06;;;;;;;13.20;9.80;;;;;;;3.14;87.83;100464.48;109358;1292;38692;-77
2023/01/08 07:31:37;;;;;;;12.00;9.80;;;;;;;3.14;87.87;100463.25;109178;1281;38607;-74
2023/01/08 07:34:08;;;;;;;12.30;9.10;;;;;;;3.16;87.82;100462.05;109368;1292;36905;-75
2023/01/08 07:36:39;;;;;;;14.00;9.90;;;;;;;3.18;87.80;100458.77;109361;1277;37141;-77
2023/01/08 07:39:10;;;;;;;13.40;9.10;;;;;;;3.17;87.89;100449.80;109358;1292;37204;-78
2023/01/08 07:41:43;;;;;;;13.30;8.90;;;;;;;3.20;87.92;100442.20;109347;1292;36218;-75
2023/01/08 07:44:14;;;;;;;12.00;8.20;;;;;;;3.23;87.72;100440.80;109357;1292;37024;-75
2023/01/08 07:46:45;;;;;;;13.00;9.30;;;;;;;3.25;87.79;100444.92;109364;1292;37508;-75
2023/01/08 07:49:17;;;;;;;13.00;9.30;;;;;;;3.29;87.70;100443.16;109376;1292;37190;-75
2023/01/08 07:51:50;;;;;;;13.30;9.50;;;;;;;3.28;87.12;100443.86;109380;1292;37708;-75
2023/01/08 07:54:22;;;;;;;15.10;9.10;;;;;;;3.28;87.53;100450.59;109345;1292;37670;-75
2023/01/08 07:56:55;;;;;;;12.50;8.80;;;;;;;3.27;87.37;100445.43;109346;1292;36534;-78
2023/01/08 07:59:26;;;;;;;13.50;8.80;;;;;;;3.26;87.40;100438.36;109364;1277;37014;-76
2023/01/08 08:01:57;;;;;;;12.80;9.30;;;;;;;3.28;87.26;100437.13;109345;1280;37353;-77
2023/01/08 08:04:29;;;;;;;11.40;8.70;;;;;;;3.28;87.25;100437.13;109344;1292;37932;-76
2023/01/08 08:07:00;;;;;;;13.10;8.60;;;;;;;3.27;87.25;100436.80;109145;1277;36648;-77
2023/01/08 08:09:31;;;;;;;13.30;9.40;;;;;;;3.24;87.14;100438.20;109353;1292;37404;-75
2023/01/08 08:12:03;;;;;;;13.80;9.10;;;;;;;3.27;87.22;100442.16;109348;1276;36248;-75
2023/01/08 08:14:34;;;;;;;12.50;9.30;;;;;;;3.28;86.93;100441.45;109348;1289;37025;-77
2023/01/08 08:17:05;;;;;;;13.10;9.60;;;;;;;3.29;87.05;100436.79;109347;1292;37382;-77
2023/01/08 08:19:36;;;;;;;14.70;9.10;;;;;;;3.31;86.94;100432.48;109337;1292;36659;-74
2023/01/08 08:22:07;;;;;;;11.50;9.50;;;;;;;3.33;86.95;100431.76;109364;1292;36293;-74
2023/01/08 08:24:38;;;;;;;13.40;9.20;;;;;;;3.34;86.90;100429.00;109155;1277;39003;-77
2023/01/08 08:27:09;;;;;;;12.90;9.30;;;;;;;3.38;87.28;100426.55;109374;1288;36991;-77
2023/01/08 08:29:40;;;;;;;15.00;9.70;;;;;;;3.42;86.76;100422.39;109340;1292;37129;-74
2023/01/08 08:32:12;;;;;;;13.30;9.60;;;;;;;3.42;86.82;100422.20;109359;1292;36787;-74
2023/01/08 08:34:44;;;;;;;13.20;9.50;;;;;;;3.46;86.79;100420.63;109137;1281;36628;-74
2023/01/08 08:37:16;;;;;;;12.70;9.20;;;;;;;3.51;86.76;100414.37;109176;1283;37430;-74
2023/01/08 08:39:48;;;;;;;15.10;9.50;;;;;;;3.55;86.57;100417.96;109364;1271;37104;-77
2023/01/08 08:42:19;;;;;;;15.40;9.80;;;;;;;3.55;86.12;100416.59;109327;1292;37103;-77
2023/01/08 08:44:50;;;;;;;13.50;9.40;;;;;;;3.56;86.15;100413.64;109372;1270;36651;-77
2023/01/08 08:47:21;;;;;;;15.70;9.70;;;;;;;3.57;85.97;100422.25;109345;1292;37181;-77
2023/01/08 08:49:52;;;;;;;14.40;9.50;;;;;;;3.53;85.66;100416.95;109163;1292;37330;-75
2023/01/08 08:52:23;;;;;;;14.30;9.40;;;;;;;3.52;85.87;100408.85;109226;1292;172422;-75
2023/01/08 08:54:54;;;;;;;13.00;9.90;;;;;;;3.53;85.97;100401.60;109347;1292;36161;-78
2023/01/08 08:57:26;;;;;;;14.60;10.60;;;;;;;3.53;85.88;100398.14;109164;1270;37319;-78
2023/01/08 08:59:58;;;;;;;15.10;10.30;;;;;;;3.55;85.88;100392.79;109350;1276;37643;-77
2023/01/08 09:02:30;;;;;;;17.80;10.70;;;;;;;3.56;85.53;100401.57;109349;1292;37123;-77
2023/01/08 09:05:01;;;;;;;14.10;9.30;;;;;;;3.57;85.78;100404.84;109251;1273;37131;-74
2023/01/08 09:07:33;;;;;;;15.40;10.60;;;;;;;3.62;85.77;100409.27;109319;1279;37708;-74
2023/01/08 09:10:05;;;;;;;15.10;10.20;;;;;;;3.66;85.75;100412.70;109338;1292;37026;-75
2023/01/08 09:12:36;;;;;;;14.80;10.00;;;;;;;3.68;85.41;100410.42;109347;1277;37295;-75
2023/01/08 09:15:11;;;;;;;17.40;11.10;;;;;;;3.67;85.25;100416.82;109353;1292;37146;-77
2023/01/08 09:17:43;;;;;;;17.20;11.40;;;;;;;3.64;85.21;100409.60;109356;1277;36233;-77
2023/01/08 09:20:14;;;;;;;14.50;10.30;;;;;;;3.67;85.57;100400.60;109368;1292;36390;-74
2023/01/08 09:22:46;;;;;;;16.10;10.70;;;;;;;3.71;85.64;100396.95;109178;1284;37184;-73
2023/01/08 09:25:17;;;;;;;14.60;11.50;;;;;;;3.76;85.11;100399.14;109372;1292;38764;-77
2023/01/08 09:27:57;;;;;;;17.90;11.90;;;;;;;3.76;85.07;100391.55;109337;1292;36969;-76
2023/01/08 09:30:29;;;;;;;16.70;10.70;;;;;;;3.77;85.17;100388.77;109192;1292;38260;-74
2023/01/08 09:33:01;;;;;;;15.80;10.40;;;;;;;3.80;84.95;100382.37;109342;1292;37297;-74
2023/01/08 09:35:33;;;;;;;17.60;10.70;;;;;;;3.85;84.96;100385.41;109184;1282;37681;-78
2023/01/08 09:38:04;;;;;;;17.70;11.50;;;;;;;3.90;84.78;100383.64;109278;1273;37266;-78
2023/01/08 09:40:39;;;;;;;15.60;11.60;;;;;;;3.93;84.96;100374.63;109358;1280;38476;-75
2023/01/08 09:43:16;;;;;;;17.00;11.10;;;;;;;3.97;84.56;100376.82;109219;1292;174292;-74
2023/01/08 09:45:50;;;;;;;17.50;10.90;;;;;;;3.98;84.04;100375.10;109338;1273;36972;-75
2023/01/08 09:48:24;;;;;;;13.50;10.50;;;;;;;4.00;84.51;100364.90;109339;1274;37194;-75
2023/01/08 09:50:58;;;;;;;17.70;12.30;;;;;;;4.03;84.16;100363.98;109324;1280;37098;-77
2023/01/08 09:53:34;;;;;;;16.80;11.20;;;;;;;4.07;84.01;100361.70;109295;1292;36984;-78
2023/01/08 09:56:11;;;;;;;17.50;11.80;;;;;;;4.07;83.74;100356.52;109229;1292;38704;-76
2023/01/08 09:58:44;;;;;;;15.60;11.00;;;;;;;4.10;83.95;100356.33;109247;1277;36364;-76
2023/01/08 10:01:16;;;;;;;16.00;10.70;;;;;;;4.15;84.11;100357.48;109237;1292;37241;-78
2023/01/08 10:03:50;;;;;;;16.40;11.80;;;;;;;4.23;84.22;100350.12;109211;1292;37035;-78
2023/01/08 10:06:23;;;;;;;15.70;10.70;;;;;;;4.34;83.91;100349.12;109061;1281;38441;-77
2023/01/08 10:08:54;;;;;;;16.10;11.00;;;;;;;4.41;83.43;100346.09;109167;1287;36345;-77
2023/01/08 10:11:26;;;;;;;14.80;9.90;;;;;;;4.45;83.07;100348.11;109172;1292;36871;-78
2023/01/08 10:14:00;;;;;;;14.10;10.40;;;;;;;4.48;82.54;100352.20;109133;1292;36596;-78
2023/01/08 10:16:34;;;;;;;15.10;10.60;;;;;;;4.53;83.08;100351.28;109239;1292;36997;-73
2023/01/08 10:19:09;;;;;;;15.20;10.30;;;;;;;4.62;83.04;100346.99;109243;1274;36702;-77
2023/01/08 10:21:42;;;;;;;14.60;11.20;;;;;;;4.70;82.79;100336.70;109248;1283;37461;-74
2023/01/08 10:24:14;;;;;;;14.20;10.30;;;;;;;4.75;82.71;100335.76;109275;1292;37072;-74
2023/01/08 10:26:47;;;;;;;14.40;9.70;;;;;;;4.81;82.80;100336.71;109229;1292;36977;-76
2023/01/08 10:29:27;;;;;;;14.70;10.10;;;;;;;4.82;82.02;100324.94;109149;1292;37097;-78
2023/01/08 10:31:58;;;;;;;13.00;9.80;;;;;;;4.81;81.49;100319.08;109202;1292;37052;-78
2023/01/08 10:34:40;;;;;;;12.40;10.00;;;;;;;4.80;81.13;100325.14;109245;1292;36237;-76
2023/01/08 10:37:22;;;;;;;15.70;11.10;;;;;;;4.75;81.12;100321.08;109240;1292;37305;-78
2023/01/08 10:39:54;;;;;;;11.70;9.50;;;;;;;4.68;81.07;100315.46;109234;1288;37692;-76
2023/01/08 10:42:25;;;;;;;11.70;9.80;;;;;;;4.67;81.26;100306.15;109229;1282;37142;-74
2023/01/08 10:44:59;;;;;;;14.40;10.30;;;;;;;4.67;80.89;100293.20;109254;1283;38327;-74
2023/01/08 10:47:31;;;;;;;15.70;10.90;;;;;;;4.66;80.69;100286.13;109269;1292;36988;-74
2023/01/08 10:50:03;;;;;;;15.00;11.10;;;;;;;4.66;80.97;100283.36;109302;1281;37132;-76
2023/01/08 10:52:35;;;;;;;14.60;10.40;;;;;;;4.69;80.87;100285.23;109249;1292;37175;-77
2023/01/08 10:55:24;;;;;;;13.00;10.30;;;;;;;4.69;80.80;100274.52;109244;1292;37608;-76
2023/01/08 10:58:00;;;;;;;15.50;10.40;;;;;;;4.76;80.88;100272.15;109241;1292;37144;-77
2023/01/08 11:00:33;;;;;;;16.80;10.40;;;;;;;4.82;80.56;100267.38;109258;1292;37387;-77
2023/01/08 11:03:24;;;;;;;13.80;10.10;;;;;;;4.86;80.07;100270.41;109176;1287;36947;-78
2023/01/08 11:05:56;;;;;;;15.60;11.30;;;;;;;4.90;80.70;100266.21;108583;1282;909143;-78
2023/01/08 11:08:30;;;;;;;14.60;11.00;;;;;;;4.97;79.87;100266.64;109232;1292;37040;-78
2023/01/08 11:11:02;;;;;;;14.20;10.70;;;;;;;4.96;79.88;100268.20;109209;1270;36122;-75
2023/01/08 11:13:34;;;;;;;16.90;11.80;;;;;;;4.95;78.85;100262.51;109245;1292;38249;-75
2023/01/08 11:16:10;;;;;;;15.30;10.90;;;;;;;4.94;79.68;100261.50;109235;1292;37031;-74
2023/01/08 11:18:46;;;;;;;15.20;11.40;;;;;;;4.99;79.92;100264.36;109257;1292;37008;-76
2023/01/08 11:21:26;;;;;;;17.30;12.40;;;;;;;4.99;78.72;100259.86;109300;1292;37160;-79
2023/01/08 11:24:17;;;;;;;15.50;11.70;;;;;;;4.95;78.67;100259.74;109229;1292;37074;-80
2023/01/08 11:26:53;;;;;;;17.70;11.70;;;;;;;4.95;79.39;100262.85;109261;1282;37023;-78
2023/01/08 11:29:36;;;;;;;14.70;11.50;;;;;;;4.96;78.85;100264.39;109309;1286;38332;-78
2023/01/08 11:32:24;;;;;;;18.30;12.40;;;;;;;4.94;78.64;100269.96;109228;1292;37496;-75
2023/01/08 11:35:00;;;;;;;17.00;11.90;;;;;;;4.92;78.87;100258.05;109279;1292;37360;-77
2023/01/08 11:37:33;;;;;;;18.70;12.40;;;;;;;4.90;78.36;100250.49;109264;1292;37014;-77
2023/01/08 11:40:10;;;;;;;19.50;11.40;;;;;;;4.88;78.29;100254.14;109254;1292;37575;-79